sensor_id;sensor_type;location;lat;lon;timestamp;temperature;humidity
68215;DHT22;55036;52.138;5.236;2022-12-29T00:01:51;11.70;91.20
68215;DHT22;55036;52.138;5.236;2022-12-29T00:04:19;11.70;91.00
68215;DHT22;55036;52.138;5.236;2022-12-29T00:06:46;11.60;91.10
68215;DHT22;55036;52.138;5.236;2022-12-29T00:09:13;11.70;91.20
68215;DHT22;55036;52.138;5.236;2022-12-29T00:11:40;11.70;90.80
68215;DHT22;55036;52.138;5.236;2022-12-29T00:14:11;11.80;90.90
68215;DHT22;55036;52.138;5.236;2022-12-29T00:16:56;11.80;90.20
68215;DHT22;55036;52.138;5.236;2022-12-29T00:19:23;11.90;90.30
68215;DHT22;55036;52.138;5.236;2022-12-29T00:22:13;11.80;90.40
68215;DHT22;55036;52.138;5.236;2022-12-29T00:24:59;11.90;90.20
68215;DHT22;55036;52.138;5.236;2022-12-29T00:27:27;11.80;90.30
68215;DHT22;55036;52.138;5.236;2022-12-29T00:30:15;11.80;90.30
68215;DHT22;55036;52.138;5.236;2022-12-29T00:33:15;11.90;90.20
68215;DHT22;55036;52.138;5.236;2022-12-29T00:36:12;11.80;90.20
68215;DHT22;55036;52.138;5.236;2022-12-29T00:38:45;11.90;90.20
68215;DHT22;55036;52.138;5.236;2022-12-29T00:41:31;11.90;89.50
68215;DHT22;55036;52.138;5.236;2022-12-29T00:44:17;11.90;89.80
68215;DHT22;55036;52.138;5.236;2022-12-29T00:46:44;11.90;90.00
68215;DHT22;55036;52.138;5.236;2022-12-29T00:49:12;11.90;90.00
68215;DHT22;55036;52.138;5.236;2022-12-29T00:52:06;11.90;89.90
68215;DHT22;55036;52.138;5.236;2022-12-29T00:54:36;11.90;89.70
68215;DHT22;55036;52.138;5.236;2022-12-29T00:57:05;11.90;89.30
68215;DHT22;55036;52.138;5.236;2022-12-29T00:59:35;12.00;89.50
68215;DHT22;55036;52.138;5.236;2022-12-29T01:02:02;12.00;88.70
68215;DHT22;55036;52.138;5.236;2022-12-29T01:04:29;11.90;89.60
68215;DHT22;55036;52.138;5.236;2022-12-29T01:06:55;12.00;89.70
68215;DHT22;55036;52.138;5.236;2022-12-29T01:09:22;12.00;89.20
68215;DHT22;55036;52.138;5.236;2022-12-29T01:12:08;12.00;89.00
68215;DHT22;55036;52.138;5.236;2022-12-29T01:14:36;12.00;88.50
68215;DHT22;55036;52.138;5.236;2022-12-29T01:17:03;12.00;89.10
68215;DHT22;55036;52.138;5.236;2022-12-29T01:19:30;11.90;89.10
68215;DHT22;55036;52.138;5.236;2022-12-29T01:21:57;11.90;90.00
68215;DHT22;55036;52.138;5.236;2022-12-29T01:24:24;11.90;90.40
68215;DHT22;55036;52.138;5.236;2022-12-29T01:26:52;11.80;91.00
68215;DHT22;55036;52.138;5.236;2022-12-29T01:29:20;11.80;91.10
68215;DHT22;55036;52.138;5.236;2022-12-29T01:31:47;11.70;91.10
68215;DHT22;55036;52.138;5.236;2022-12-29T01:34:16;11.70;91.30
68215;DHT22;55036;52.138;5.236;2022-12-29T01:36:43;11.70;91.30
68215;DHT22;55036;52.138;5.236;2022-12-29T01:39:10;11.60;91.50
68215;DHT22;55036;52.138;5.236;2022-12-29T01:41:37;11.60;91.60
68215;DHT22;55036;52.138;5.236;2022-12-29T01:47:09;11.60;92.10
68215;DHT22;55036;52.138;5.236;2022-12-29T01:49:36;11.50;92.30
68215;DHT22;55036;52.138;5.236;2022-12-29T01:52:05;11.50;92.40
68215;DHT22;55036;52.138;5.236;2022-12-29T01:54:38;11.50;92.20
68215;DHT22;55036;52.138;5.236;2022-12-29T01:57:10;11.50;92.30
68215;DHT22;55036;52.138;5.236;2022-12-29T01:59:41;11.50;92.20
68215;DHT22;55036;52.138;5.236;2022-12-29T02:02:09;11.50;92.00
68215;DHT22;55036;52.138;5.236;2022-12-29T02:04:39;11.50;92.40
68215;DHT22;55036;52.138;5.236;2022-12-29T02:07:11;11.50;92.40
68215;DHT22;55036;52.138;5.236;2022-12-29T02:09:41;11.40;92.40
68215;DHT22;55036;52.138;5.236;2022-12-29T02:12:09;11.40;92.40
68215;DHT22;55036;52.138;5.236;2022-12-29T02:14:36;11.40;92.50
68215;DHT22;55036;52.138;5.236;2022-12-29T02:17:07;11.40;92.40
68215;DHT22;55036;52.138;5.236;2022-12-29T02:22:27;11.40;92.40
68215;DHT22;55036;52.138;5.236;2022-12-29T02:25:18;11.40;92.40
68215;DHT22;55036;52.138;5.236;2022-12-29T02:31:01;11.40;92.30
68215;DHT22;55036;52.138;5.236;2022-12-29T02:34:03;11.40;92.00
68215;DHT22;55036;52.138;5.236;2022-12-29T02:36:53;11.40;92.00
68215;DHT22;55036;52.138;5.236;2022-12-29T02:39:45;11.40;91.90
68215;DHT22;55036;52.138;5.236;2022-12-29T02:45:10;11.30;91.80
68215;DHT22;55036;52.138;5.236;2022-12-29T02:50:17;11.30;91.00
68215;DHT22;55036;52.138;5.236;2022-12-29T02:52:50;11.40;91.30
68215;DHT22;55036;52.138;5.236;2022-12-29T02:55:18;11.40;91.20
68215;DHT22;55036;52.138;5.236;2022-12-29T02:57:45;11.40;91.00
68215;DHT22;55036;52.138;5.236;2022-12-29T03:00:16;11.30;90.40
68215;DHT22;55036;52.138;5.236;2022-12-29T03:09:11;11.30;90.10
68215;DHT22;55036;52.138;5.236;2022-12-29T03:12:03;11.40;90.10
68215;DHT22;55036;52.138;5.236;2022-12-29T03:14:58;11.30;89.80
68215;DHT22;55036;52.138;5.236;2022-12-29T03:18:23;11.30;90.20
68215;DHT22;55036;52.138;5.236;2022-12-29T03:21:37;11.30;89.10
68215;DHT22;55036;52.138;5.236;2022-12-29T03:23:45;11.30;89.80
68215;DHT22;55036;52.138;5.236;2022-12-29T03:26:15;11.20;90.00
68215;DHT22;55036;52.138;5.236;2022-12-29T03:28:52;11.20;89.50
68215;DHT22;55036;52.138;5.236;2022-12-29T03:31:20;11.10;89.60
68215;DHT22;55036;52.138;5.236;2022-12-29T03:33:48;11.20;89.60
68215;DHT22;55036;52.138;5.236;2022-12-29T03:36:23;11.20;89.70
68215;DHT22;55036;52.138;5.236;2022-12-29T03:39:03;11.10;89.80
68215;DHT22;55036;52.138;5.236;2022-12-29T03:41:33;11.10;89.90
68215;DHT22;55036;52.138;5.236;2022-12-29T03:44:00;11.20;89.90
68215;DHT22;55036;52.138;5.236;2022-12-29T03:46:27;11.20;89.50
68215;DHT22;55036;52.138;5.236;2022-12-29T03:48:54;11.20;89.10
68215;DHT22;55036;52.138;5.236;2022-12-29T03:51:20;11.10;89.30
68215;DHT22;55036;52.138;5.236;2022-12-29T03:53:47;11.10;89.80
68215;DHT22;55036;52.138;5.236;2022-12-29T03:56:14;11.10;89.50
68215;DHT22;55036;52.138;5.236;2022-12-29T03:58:40;11.20;89.00
68215;DHT22;55036;52.138;5.236;2022-12-29T04:01:07;11.20;89.20
68215;DHT22;55036;52.138;5.236;2022-12-29T04:03:34;11.10;89.30
68215;DHT22;55036;52.138;5.236;2022-12-29T04:06:01;11.10;89.00
68215;DHT22;55036;52.138;5.236;2022-12-29T04:08:27;11.10;89.40
68215;DHT22;55036;52.138;5.236;2022-12-29T04:10:54;11.10;89.10
68215;DHT22;55036;52.138;5.236;2022-12-29T04:13:21;11.10;89.30
68215;DHT22;55036;52.138;5.236;2022-12-29T04:15:48;11.10;89.10
68215;DHT22;55036;52.138;5.236;2022-12-29T04:18:15;11.00;89.80
68215;DHT22;55036;52.138;5.236;2022-12-29T04:20:44;11.00;89.80
68215;DHT22;55036;52.138;5.236;2022-12-29T04:23:27;11.00;89.60
68215;DHT22;55036;52.138;5.236;2022-12-29T04:25:54;11.00;89.80
68215;DHT22;55036;52.138;5.236;2022-12-29T04:28:20;11.00;89.80
68215;DHT22;55036;52.138;5.236;2022-12-29T04:30:47;11.00;89.00
68215;DHT22;55036;52.138;5.236;2022-12-29T04:33:14;11.00;89.30
68215;DHT22;55036;52.138;5.236;2022-12-29T04:35:42;11.10;88.40
68215;DHT22;55036;52.138;5.236;2022-12-29T04:38:09;11.00;87.80
68215;DHT22;55036;52.138;5.236;2022-12-29T04:40:39;11.10;87.10
68215;DHT22;55036;52.138;5.236;2022-12-29T04:43:06;11.10;86.30
68215;DHT22;55036;52.138;5.236;2022-12-29T04:45:33;11.10;86.60
68215;DHT22;55036;52.138;5.236;2022-12-29T04:48:00;11.10;85.60
68215;DHT22;55036;52.138;5.236;2022-12-29T04:50:27;11.10;85.40
68215;DHT22;55036;52.138;5.236;2022-12-29T04:52:54;11.10;85.40
68215;DHT22;55036;52.138;5.236;2022-12-29T04:55:20;11.10;85.00
68215;DHT22;55036;52.138;5.236;2022-12-29T04:57:47;11.00;86.00
68215;DHT22;55036;52.138;5.236;2022-12-29T05:00:14;10.90;86.30
68215;DHT22;55036;52.138;5.236;2022-12-29T05:02:41;10.80;86.50
68215;DHT22;55036;52.138;5.236;2022-12-29T05:05:08;10.80;86.60
68215;DHT22;55036;52.138;5.236;2022-12-29T05:07:35;10.70;86.20
68215;DHT22;55036;52.138;5.236;2022-12-29T05:10:02;10.80;86.40
68215;DHT22;55036;52.138;5.236;2022-12-29T05:12:33;10.70;86.50
68215;DHT22;55036;52.138;5.236;2022-12-29T05:15:00;10.80;86.30
68215;DHT22;55036;52.138;5.236;2022-12-29T05:17:27;10.80;86.50
68215;DHT22;55036;52.138;5.236;2022-12-29T05:19:53;10.80;85.80
68215;DHT22;55036;52.138;5.236;2022-12-29T05:22:20;10.80;85.40
68215;DHT22;55036;52.138;5.236;2022-12-29T05:24:47;10.80;85.20
68215;DHT22;55036;52.138;5.236;2022-12-29T05:27:14;10.90;85.80
68215;DHT22;55036;52.138;5.236;2022-12-29T05:29:41;10.80;85.40
68215;DHT22;55036;52.138;5.236;2022-12-29T05:32:07;10.80;85.70
68215;DHT22;55036;52.138;5.236;2022-12-29T05:34:34;10.80;86.30
68215;DHT22;55036;52.138;5.236;2022-12-29T05:37:00;10.80;87.40
68215;DHT22;55036;52.138;5.236;2022-12-29T05:39:29;10.70;88.20
68215;DHT22;55036;52.138;5.236;2022-12-29T05:41:55;10.60;88.50
68215;DHT22;55036;52.138;5.236;2022-12-29T05:44:22;10.70;88.60
68215;DHT22;55036;52.138;5.236;2022-12-29T05:46:49;10.60;88.70
68215;DHT22;55036;52.138;5.236;2022-12-29T05:49:16;10.60;88.50
68215;DHT22;55036;52.138;5.236;2022-12-29T05:51:43;10.60;88.20
68215;DHT22;55036;52.138;5.236;2022-12-29T05:54:10;10.70;88.30
68215;DHT22;55036;52.138;5.236;2022-12-29T05:56:37;10.60;88.70
68215;DHT22;55036;52.138;5.236;2022-12-29T05:59:03;10.60;88.50
68215;DHT22;55036;52.138;5.236;2022-12-29T06:01:30;10.60;88.20
68215;DHT22;55036;52.138;5.236;2022-12-29T06:03:57;10.60;87.60
68215;DHT22;55036;52.138;5.236;2022-12-29T06:06:23;10.60;88.40
68215;DHT22;55036;52.138;5.236;2022-12-29T06:08:50;10.60;88.60
68215;DHT22;55036;52.138;5.236;2022-12-29T06:11:17;10.50;89.30
68215;DHT22;55036;52.138;5.236;2022-12-29T06:13:43;10.50;88.90
68215;DHT22;55036;52.138;5.236;2022-12-29T06:16:10;10.50;88.80
68215;DHT22;55036;52.138;5.236;2022-12-29T06:18:37;10.50;88.40
68215;DHT22;55036;52.138;5.236;2022-12-29T06:21:05;10.50;88.30
68215;DHT22;55036;52.138;5.236;2022-12-29T06:23:32;10.50;88.20
68215;DHT22;55036;52.138;5.236;2022-12-29T06:25:58;10.50;87.80
68215;DHT22;55036;52.138;5.236;2022-12-29T06:28:25;10.40;88.60
68215;DHT22;55036;52.138;5.236;2022-12-29T06:30:52;10.40;88.70
68215;DHT22;55036;52.138;5.236;2022-12-29T06:33:18;10.40;89.30
68215;DHT22;55036;52.138;5.236;2022-12-29T06:35:45;10.40;89.40
68215;DHT22;55036;52.138;5.236;2022-12-29T06:38:12;10.40;88.90
68215;DHT22;55036;52.138;5.236;2022-12-29T06:40:39;10.40;88.90
68215;DHT22;55036;52.138;5.236;2022-12-29T06:43:07;10.30;88.70
68215;DHT22;55036;52.138;5.236;2022-12-29T06:45:34;10.30;88.90
68215;DHT22;55036;52.138;5.236;2022-12-29T06:48:00;10.30;89.00
68215;DHT22;55036;52.138;5.236;2022-12-29T06:50:27;10.20;88.90
68215;DHT22;55036;52.138;5.236;2022-12-29T06:52:54;10.20;88.60
68215;DHT22;55036;52.138;5.236;2022-12-29T06:55:20;10.20;88.30
68215;DHT22;55036;52.138;5.236;2022-12-29T06:57:47;10.20;87.30
68215;DHT22;55036;52.138;5.236;2022-12-29T07:00:14;10.20;86.80
68215;DHT22;55036;52.138;5.236;2022-12-29T07:02:48;10.30;86.30
68215;DHT22;55036;52.138;5.236;2022-12-29T07:05:15;10.40;85.80
68215;DHT22;55036;52.138;5.236;2022-12-29T07:07:41;10.30;84.60
68215;DHT22;55036;52.138;5.236;2022-12-29T07:10:08;10.20;85.70
68215;DHT22;55036;52.138;5.236;2022-12-29T07:12:35;10.20;85.60
68215;DHT22;55036;52.138;5.236;2022-12-29T07:15:01;10.20;85.50
68215;DHT22;55036;52.138;5.236;2022-12-29T07:17:28;10.20;85.30
68215;DHT22;55036;52.138;5.236;2022-12-29T07:19:55;10.10;85.00
68215;DHT22;55036;52.138;5.236;2022-12-29T07:22:21;10.10;85.40
68215;DHT22;55036;52.138;5.236;2022-12-29T07:24:48;10.10;85.10
68215;DHT22;55036;52.138;5.236;2022-12-29T07:27:15;10.10;85.30
68215;DHT22;55036;52.138;5.236;2022-12-29T07:29:42;10.10;85.80
68215;DHT22;55036;52.138;5.236;2022-12-29T07:32:08;10.00;86.00
68215;DHT22;55036;52.138;5.236;2022-12-29T07:34:35;10.00;85.90
68215;DHT22;55036;52.138;5.236;2022-12-29T07:37:02;10.10;85.50
68215;DHT22;55036;52.138;5.236;2022-12-29T07:39:28;10.10;86.10
68215;DHT22;55036;52.138;5.236;2022-12-29T07:41:55;10.10;85.60
68215;DHT22;55036;52.138;5.236;2022-12-29T07:44:30;10.10;85.90
68215;DHT22;55036;52.138;5.236;2022-12-29T07:46:56;10.10;85.70
68215;DHT22;55036;52.138;5.236;2022-12-29T07:49:24;10.20;86.00
68215;DHT22;55036;52.138;5.236;2022-12-29T07:51:51;10.20;85.90
68215;DHT22;55036;52.138;5.236;2022-12-29T07:54:18;10.20;85.10
68215;DHT22;55036;52.138;5.236;2022-12-29T07:56:45;10.20;85.70
68215;DHT22;55036;52.138;5.236;2022-12-29T07:59:12;10.30;85.20
68215;DHT22;55036;52.138;5.236;2022-12-29T08:01:39;10.20;84.90
68215;DHT22;55036;52.138;5.236;2022-12-29T08:04:06;10.20;85.20
68215;DHT22;55036;52.138;5.236;2022-12-29T08:06:33;10.30;84.80
68215;DHT22;55036;52.138;5.236;2022-12-29T08:08:59;10.20;85.30
68215;DHT22;55036;52.138;5.236;2022-12-29T08:11:36;10.30;84.30
68215;DHT22;55036;52.138;5.236;2022-12-29T08:14:03;10.40;83.90
68215;DHT22;55036;52.138;5.236;2022-12-29T08:16:30;10.30;84.20
68215;DHT22;55036;52.138;5.236;2022-12-29T08:18:57;10.30;82.90
68215;DHT22;55036;52.138;5.236;2022-12-29T08:21:23;10.40;83.20
68215;DHT22;55036;52.138;5.236;2022-12-29T08:23:50;10.40;83.50
68215;DHT22;55036;52.138;5.236;2022-12-29T08:26:16;10.40;83.00
68215;DHT22;55036;52.138;5.236;2022-12-29T08:28:43;10.50;83.10
68215;DHT22;55036;52.138;5.236;2022-12-29T08:31:10;10.50;82.10
68215;DHT22;55036;52.138;5.236;2022-12-29T08:33:38;10.50;81.80
68215;DHT22;55036;52.138;5.236;2022-12-29T08:36:06;10.40;82.30
68215;DHT22;55036;52.138;5.236;2022-12-29T08:38:33;10.50;80.80
68215;DHT22;55036;52.138;5.236;2022-12-29T08:41:00;10.50;81.10
68215;DHT22;55036;52.138;5.236;2022-12-29T08:43:30;10.60;81.80
68215;DHT22;55036;52.138;5.236;2022-12-29T08:45:58;10.60;82.40
68215;DHT22;55036;52.138;5.236;2022-12-29T08:48:25;10.50;82.70
68215;DHT22;55036;52.138;5.236;2022-12-29T08:50:52;10.50;82.70
68215;DHT22;55036;52.138;5.236;2022-12-29T08:53:19;10.50;82.50
68215;DHT22;55036;52.138;5.236;2022-12-29T08:55:47;10.50;82.80
68215;DHT22;55036;52.138;5.236;2022-12-29T08:58:14;10.50;82.80
68215;DHT22;55036;52.138;5.236;2022-12-29T09:00:42;10.60;82.60
68215;DHT22;55036;52.138;5.236;2022-12-29T09:03:08;10.50;83.70
68215;DHT22;55036;52.138;5.236;2022-12-29T09:05:36;10.50;83.70
68215;DHT22;55036;52.138;5.236;2022-12-29T09:08:03;10.40;83.80
68215;DHT22;55036;52.138;5.236;2022-12-29T09:10:30;10.50;84.90
68215;DHT22;55036;52.138;5.236;2022-12-29T09:12:57;10.60;83.80
68215;DHT22;55036;52.138;5.236;2022-12-29T09:15:24;10.60;83.60
68215;DHT22;55036;52.138;5.236;2022-12-29T09:17:51;10.60;83.90
68215;DHT22;55036;52.138;5.236;2022-12-29T09:20:19;10.50;83.80
68215;DHT22;55036;52.138;5.236;2022-12-29T09:22:46;10.50;85.00
68215;DHT22;55036;52.138;5.236;2022-12-29T09:25:14;10.40;85.60
68215;DHT22;55036;52.138;5.236;2022-12-29T09:27:41;10.50;85.70
68215;DHT22;55036;52.138;5.236;2022-12-29T09:30:10;10.40;85.80
68215;DHT22;55036;52.138;5.236;2022-12-29T09:32:37;10.40;87.00
68215;DHT22;55036;52.138;5.236;2022-12-29T09:35:10;10.30;88.10
68215;DHT22;55036;52.138;5.236;2022-12-29T09:37:37;10.30;87.80
68215;DHT22;55036;52.138;5.236;2022-12-29T09:40:05;10.30;88.00
68215;DHT22;55036;52.138;5.236;2022-12-29T09:42:42;10.30;87.90
68215;DHT22;55036;52.138;5.236;2022-12-29T09:45:16;10.30;88.70
68215;DHT22;55036;52.138;5.236;2022-12-29T09:47:45;10.30;89.40
68215;DHT22;55036;52.138;5.236;2022-12-29T09:50:25;10.20;89.70
68215;DHT22;55036;52.138;5.236;2022-12-29T09:53:09;10.10;90.30
68215;DHT22;55036;52.138;5.236;2022-12-29T09:55:55;10.10;90.20
68215;DHT22;55036;52.138;5.236;2022-12-29T09:58:36;10.10;90.30
68215;DHT22;55036;52.138;5.236;2022-12-29T10:03:57;10.20;90.40
68215;DHT22;55036;52.138;5.236;2022-12-29T10:12:31;10.20;90.40
68215;DHT22;55036;52.138;5.236;2022-12-29T10:15:14;10.20;90.50
68215;DHT22;55036;52.138;5.236;2022-12-29T10:20:33;10.20;90.40
68215;DHT22;55036;52.138;5.236;2022-12-29T10:25:42;10.30;90.50
68215;DHT22;55036;52.138;5.236;2022-12-29T10:28:43;10.30;90.50
68215;DHT22;55036;52.138;5.236;2022-12-29T10:31:58;10.30;90.40
68215;DHT22;55036;52.138;5.236;2022-12-29T10:34:15;10.30;90.50
68215;DHT22;55036;52.138;5.236;2022-12-29T10:36:47;10.40;90.30
68215;DHT22;55036;52.138;5.236;2022-12-29T10:39:27;10.50;90.20
68215;DHT22;55036;52.138;5.236;2022-12-29T10:42:21;10.40;90.40
68215;DHT22;55036;52.138;5.236;2022-12-29T10:44:56;10.40;90.40
68215;DHT22;55036;52.138;5.236;2022-12-29T10:47:27;10.40;90.70
68215;DHT22;55036;52.138;5.236;2022-12-29T10:49:55;10.30;90.80
68215;DHT22;55036;52.138;5.236;2022-12-29T10:52:25;10.30;90.80
68215;DHT22;55036;52.138;5.236;2022-12-29T10:54:56;10.30;90.90
68215;DHT22;55036;52.138;5.236;2022-12-29T10:57:28;10.40;90.90
68215;DHT22;55036;52.138;5.236;2022-12-29T10:59:58;10.40;90.60
68215;DHT22;55036;52.138;5.236;2022-12-29T11:08:00;10.50;90.20
68215;DHT22;55036;52.138;5.236;2022-12-29T11:10:36;10.50;90.20
68215;DHT22;55036;52.138;5.236;2022-12-29T11:13:15;10.50;90.10
68215;DHT22;55036;52.138;5.236;2022-12-29T11:15:46;10.50;90.00
68215;DHT22;55036;52.138;5.236;2022-12-29T11:18:24;10.50;90.10
68215;DHT22;55036;52.138;5.236;2022-12-29T11:20:55;10.60;90.40
68215;DHT22;55036;52.138;5.236;2022-12-29T11:23:33;10.60;89.90
68215;DHT22;55036;52.138;5.236;2022-12-29T11:28:38;11.00;89.00
68215;DHT22;55036;52.138;5.236;2022-12-29T11:31:06;11.10;89.00
68215;DHT22;55036;52.138;5.236;2022-12-29T11:33:38;11.20;87.70
68215;DHT22;55036;52.138;5.236;2022-12-29T11:36:17;11.30;88.80
68215;DHT22;55036;52.138;5.236;2022-12-29T11:38:52;11.30;87.80
68215;DHT22;55036;52.138;5.236;2022-12-29T11:41:25;11.40;87.50
68215;DHT22;55036;52.138;5.236;2022-12-29T11:43:55;11.50;86.40
68215;DHT22;55036;52.138;5.236;2022-12-29T11:46:31;11.60;86.90
68215;DHT22;55036;52.138;5.236;2022-12-29T11:48:59;11.70;86.30
68215;DHT22;55036;52.138;5.236;2022-12-29T11:51:30;11.80;84.20
68215;DHT22;55036;52.138;5.236;2022-12-29T11:53:59;11.90;84.80
68215;DHT22;55036;52.138;5.236;2022-12-29T11:56:38;11.80;85.00
68215;DHT22;55036;52.138;5.236;2022-12-29T12:04:43;11.50;84.30
68215;DHT22;55036;52.138;5.236;2022-12-29T12:07:16;11.30;84.70
68215;DHT22;55036;52.138;5.236;2022-12-29T12:09:52;11.20;84.90
68215;DHT22;55036;52.138;5.236;2022-12-29T12:12:39;11.20;85.40
68215;DHT22;55036;52.138;5.236;2022-12-29T12:15:17;11.20;85.00
68215;DHT22;55036;52.138;5.236;2022-12-29T12:17:52;11.10;85.60
68215;DHT22;55036;52.138;5.236;2022-12-29T12:23:30;11.10;86.20
68215;DHT22;55036;52.138;5.236;2022-12-29T12:28:48;10.90;87.80
68215;DHT22;55036;52.138;5.236;2022-12-29T12:34:11;10.90;87.60
68215;DHT22;55036;52.138;5.236;2022-12-29T12:36:49;10.90;87.60
68215;DHT22;55036;52.138;5.236;2022-12-29T12:39:27;11.00;87.10
68215;DHT22;55036;52.138;5.236;2022-12-29T12:42:06;10.90;87.90
68215;DHT22;55036;52.138;5.236;2022-12-29T12:47:25;10.70;89.50
68215;DHT22;55036;52.138;5.236;2022-12-29T12:50:31;10.80;89.70
68215;DHT22;55036;52.138;5.236;2022-12-29T12:58:51;11.00;88.80
68215;DHT22;55036;52.138;5.236;2022-12-29T13:01:38;11.00;88.60
68215;DHT22;55036;52.138;5.236;2022-12-29T13:09:58;11.10;87.30
68215;DHT22;55036;52.138;5.236;2022-12-29T13:15:49;11.00;86.90
68215;DHT22;55036;52.138;5.236;2022-12-29T13:21:30;11.10;86.40
68215;DHT22;55036;52.138;5.236;2022-12-29T13:24:15;11.10;86.10
68215;DHT22;55036;52.138;5.236;2022-12-29T13:26:49;11.10;85.90
68215;DHT22;55036;52.138;5.236;2022-12-29T13:30:00;11.10;84.80
68215;DHT22;55036;52.138;5.236;2022-12-29T13:32:49;11.10;84.20
68215;DHT22;55036;52.138;5.236;2022-12-29T13:35:36;11.00;85.00
68215;DHT22;55036;52.138;5.236;2022-12-29T13:38:13;11.00;85.10
68215;DHT22;55036;52.138;5.236;2022-12-29T13:40:44;11.00;84.60
68215;DHT22;55036;52.138;5.236;2022-12-29T13:43:13;11.00;84.30
68215;DHT22;55036;52.138;5.236;2022-12-29T13:45:43;11.00;84.20
68215;DHT22;55036;52.138;5.236;2022-12-29T13:48:21;11.00;85.00
68215;DHT22;55036;52.138;5.236;2022-12-29T13:50:58;11.10;84.30
68215;DHT22;55036;52.138;5.236;2022-12-29T13:53:34;11.10;84.30
68215;DHT22;55036;52.138;5.236;2022-12-29T13:56:23;11.10;84.50
68215;DHT22;55036;52.138;5.236;2022-12-29T13:58:57;11.20;83.90
68215;DHT22;55036;52.138;5.236;2022-12-29T14:01:44;11.10;84.30
68215;DHT22;55036;52.138;5.236;2022-12-29T14:04:23;11.10;84.30
68215;DHT22;55036;52.138;5.236;2022-12-29T14:07:04;11.10;85.00
68215;DHT22;55036;52.138;5.236;2022-12-29T14:09:47;11.00;87.10
68215;DHT22;55036;52.138;5.236;2022-12-29T14:12:35;10.90;86.90
68215;DHT22;55036;52.138;5.236;2022-12-29T14:17:39;10.60;87.90
68215;DHT22;55036;52.138;5.236;2022-12-29T14:20:18;10.40;88.80
68215;DHT22;55036;52.138;5.236;2022-12-29T14:23:16;10.30;89.10
68215;DHT22;55036;52.138;5.236;2022-12-29T14:28:39;10.10;89.20
68215;DHT22;55036;52.138;5.236;2022-12-29T14:36:38;9.90;90.20
68215;DHT22;55036;52.138;5.236;2022-12-29T14:47:35;10.00;89.70
68215;DHT22;55036;52.138;5.236;2022-12-29T14:50:11;9.90;90.10
68215;DHT22;55036;52.138;5.236;2022-12-29T14:52:57;9.90;90.20
68215;DHT22;55036;52.138;5.236;2022-12-29T14:55:47;9.90;90.10
68215;DHT22;55036;52.138;5.236;2022-12-29T14:58:27;9.90;90.30
68215;DHT22;55036;52.138;5.236;2022-12-29T15:00:55;9.90;90.30
68215;DHT22;55036;52.138;5.236;2022-12-29T15:03:43;9.90;90.70
68215;DHT22;55036;52.138;5.236;2022-12-29T15:06:13;9.90;90.70
68215;DHT22;55036;52.138;5.236;2022-12-29T15:11:47;10.00;90.60
68215;DHT22;55036;52.138;5.236;2022-12-29T15:14:57;9.90;90.60
68215;DHT22;55036;52.138;5.236;2022-12-29T15:17:26;9.90;90.60
68215;DHT22;55036;52.138;5.236;2022-12-29T15:19:55;10.00;90.60
68215;DHT22;55036;52.138;5.236;2022-12-29T15:22:23;10.00;90.60
68215;DHT22;55036;52.138;5.236;2022-12-29T15:24:52;10.00;90.40
68215;DHT22;55036;52.138;5.236;2022-12-29T15:27:21;10.00;90.40
68215;DHT22;55036;52.138;5.236;2022-12-29T15:29:59;10.10;90.50
68215;DHT22;55036;52.138;5.236;2022-12-29T15:32:38;10.00;90.60
68215;DHT22;55036;52.138;5.236;2022-12-29T15:37:48;10.00;90.50
68215;DHT22;55036;52.138;5.236;2022-12-29T15:40:29;10.00;90.50
68215;DHT22;55036;52.138;5.236;2022-12-29T15:45:34;10.00;90.20
68215;DHT22;55036;52.138;5.236;2022-12-29T15:48:03;10.10;90.30
68215;DHT22;55036;52.138;5.236;2022-12-29T15:50:32;10.10;90.10
68215;DHT22;55036;52.138;5.236;2022-12-29T15:53:00;10.10;90.10
68215;DHT22;55036;52.138;5.236;2022-12-29T15:55:36;10.10;89.50
68215;DHT22;55036;52.138;5.236;2022-12-29T15:58:05;10.00;90.00
68215;DHT22;55036;52.138;5.236;2022-12-29T16:00:47;10.00;90.10
68215;DHT22;55036;52.138;5.236;2022-12-29T16:03:14;10.00;89.80
68215;DHT22;55036;52.138;5.236;2022-12-29T16:05:50;10.10;89.90
68215;DHT22;55036;52.138;5.236;2022-12-29T16:08:38;10.10;88.90
68215;DHT22;55036;52.138;5.236;2022-12-29T16:11:27;10.10;89.50
68215;DHT22;55036;52.138;5.236;2022-12-29T16:13:56;10.10;89.30
68215;DHT22;55036;52.138;5.236;2022-12-29T16:16:36;10.00;89.80
68215;DHT22;55036;52.138;5.236;2022-12-29T16:21:50;10.00;88.80
68215;DHT22;55036;52.138;5.236;2022-12-29T16:24:23;9.90;87.80
68215;DHT22;55036;52.138;5.236;2022-12-29T16:27:13;9.90;88.60
68215;DHT22;55036;52.138;5.236;2022-12-29T16:29:42;9.90;87.70
68215;DHT22;55036;52.138;5.236;2022-12-29T16:32:30;9.80;87.60
68215;DHT22;55036;52.138;5.236;2022-12-29T16:35:16;9.80;88.20
68215;DHT22;55036;52.138;5.236;2022-12-29T16:37:44;9.80;87.40
68215;DHT22;55036;52.138;5.236;2022-12-29T16:42:47;9.80;87.40
68215;DHT22;55036;52.138;5.236;2022-12-29T16:45:33;9.80;86.40
68215;DHT22;55036;52.138;5.236;2022-12-29T16:50:33;9.80;87.30
68215;DHT22;55036;52.138;5.236;2022-12-29T16:53:02;9.80;86.30
68215;DHT22;55036;52.138;5.236;2022-12-29T16:55:30;9.70;85.90
68215;DHT22;55036;52.138;5.236;2022-12-29T16:57:58;9.60;86.60
68215;DHT22;55036;52.138;5.236;2022-12-29T17:00:35;9.60;85.90
68215;DHT22;55036;52.138;5.236;2022-12-29T17:03:03;9.60;86.00
68215;DHT22;55036;52.138;5.236;2022-12-29T17:05:30;9.40;85.80
68215;DHT22;55036;52.138;5.236;2022-12-29T17:07:56;9.40;86.20
68215;DHT22;55036;52.138;5.236;2022-12-29T17:10:27;9.40;86.00
68215;DHT22;55036;52.138;5.236;2022-12-29T17:13:13;9.30;85.80
68215;DHT22;55036;52.138;5.236;2022-12-29T17:15:40;9.30;86.20
68215;DHT22;55036;52.138;5.236;2022-12-29T17:18:07;9.40;86.10
68215;DHT22;55036;52.138;5.236;2022-12-29T17:20:39;9.30;86.00
68215;DHT22;55036;52.138;5.236;2022-12-29T17:23:14;9.40;85.80
68215;DHT22;55036;52.138;5.236;2022-12-29T17:25:50;9.40;85.20
68215;DHT22;55036;52.138;5.236;2022-12-29T17:28:22;9.30;85.30
68215;DHT22;55036;52.138;5.236;2022-12-29T17:30:55;9.40;85.60
68215;DHT22;55036;52.138;5.236;2022-12-29T17:33:23;9.40;85.20
68215;DHT22;55036;52.138;5.236;2022-12-29T17:35:50;9.30;84.60
68215;DHT22;55036;52.138;5.236;2022-12-29T17:38:27;9.20;84.90
68215;DHT22;55036;52.138;5.236;2022-12-29T17:40:54;9.30;84.50
68215;DHT22;55036;52.138;5.236;2022-12-29T17:43:21;9.20;84.80
68215;DHT22;55036;52.138;5.236;2022-12-29T17:45:54;9.20;84.00
68215;DHT22;55036;52.138;5.236;2022-12-29T17:48:22;9.10;84.00
68215;DHT22;55036;52.138;5.236;2022-12-29T17:50:50;9.10;84.40
68215;DHT22;55036;52.138;5.236;2022-12-29T17:53:23;9.10;84.10
68215;DHT22;55036;52.138;5.236;2022-12-29T17:55:50;9.00;83.90
68215;DHT22;55036;52.138;5.236;2022-12-29T17:58:19;9.10;84.40